Time;durP1;ratioP1;P1;durP2;ratioP2;P2;SDS_P1;SDS_P2;PMS_P1;PMS_P2;Temp;Humidity;BMP_temperature;BMP_pressure;BME280_temperature;BME280_humidity;BME280_pressure;Samples;Min_cycle;Max_cycle;Signal;HPM_P1;HPM_P2
2021/05/06 00:32:51;;;;;;;;;31.25;27.25;;;;;;;;8763410;40;11243;-47
2021/05/06 00:38:57;;;;;;;;;37.75;35.25;;;;;;;;8775093;40;10967;-50
2021/05/06 01:16:01;;;;;;;;;38.75;36.00;;;;;;;;8751181;40;10910;-49
2021/05/06 01:22:04;;;;;;;;;33.25;30.25;;;;;;;;8751258;40;10661;-50
2021/05/06 01:28:09;;;;;;;;;39.00;35.75;;;;;;;;8749997;40;10857;-48
2021/05/06 01:59:07;;;;;;;;;39.75;34.50;;;;;;;;8754292;40;11152;-49
2021/05/06 02:05:09;;;;;;;;;40.75;37.25;;;;;;;;8746209;40;10723;-50
2021/05/06 02:16:05;;;;;;;;;33.75;31.25;;;;;;;;8932974;39;17525;-49
2021/05/06 02:22:09;;;;;;;;;39.00;36.75;;;;;;;;8944257;39;10589;-49
2021/05/06 02:28:12;;;;;;;;;33.00;28.00;;;;;;;;8946378;39;10393;-49
2021/05/06 02:34:14;;;;;;;;;36.50;33.50;;;;;;;;8946116;39;10374;-50
2021/05/06 02:40:16;;;;;;;;;33.00;32.50;;;;;;;;8945015;39;10800;-49
2021/05/06 02:46:17;;;;;;;;;33.75;32.50;;;;;;;;8959020;39;10509;-47
2021/05/06 02:52:29;;;;;;;;;31.50;28.25;;;;;;;;8969101;39;10440;-49
2021/05/06 02:58:45;;;;;;;;;27.25;26.00;;;;;;;;8970476;39;10515;-47
2021/05/06 03:04:47;;;;;;;;;27.50;25.25;;;;;;;;8970256;39;10368;-49
2021/05/06 03:23:21;;;;;;;;;31.25;30.25;;;;;;;;8963388;39;10408;-47
2021/05/06 03:29:29;;;;;;;;;21.00;21.00;;;;;;;;8951751;39;10322;-47
2021/05/06 03:41:50;;;;;;;;;25.25;25.25;;;;;;;;8951307;39;10478;-49
2021/05/06 04:26:21;;;;;;;;;24.00;20.50;;;;;;;;8679752;41;10655;-57
2021/05/06 04:38:44;;;;;;;;;25.00;23.00;;;;;;;;8684729;41;10402;-56
2021/05/06 05:28:40;;;;;;;;;31.00;29.50;;;;;;;;8685332;41;10542;-60
2021/05/06 05:35:30;;;;;;;;;28.67;22.67;;;;;;;;8677572;41;10088;-58
2021/05/06 05:59:37;;;;;;;;;35.33;34.67;;;;;;;;8677570;40;10588;-63
2021/05/06 06:05:39;;;;;;;;;28.00;28.00;;;;;;;;8676263;41;10343;-58
2021/05/06 06:11:41;;;;;;;;;44.33;38.33;;;;;;;;8678715;40;10203;-58
2021/05/06 06:17:44;;;;;;;;;38.00;36.00;;;;;;;;8700398;41;10129;-58
2021/05/06 06:23:47;;;;;;;;;36.00;31.33;;;;;;;;8682136;40;10134;-57
2021/05/06 06:29:48;;;;;;;;;44.00;37.67;;;;;;;;8677364;40;10152;-58
2021/05/06 06:35:51;;;;;;;;;32.00;26.00;;;;;;;;8681016;41;10159;-56
2021/05/06 06:41:54;;;;;;;;;30.33;24.67;;;;;;;;8681327;41;10321;-58
2021/05/06 06:47:56;;;;;;;;;30.33;27.33;;;;;;;;8676152;41;10144;-57
2021/05/06 06:53:57;;;;;;;;;28.00;27.00;;;;;;;;8694769;41;10071;-57
2021/05/06 06:59:59;;;;;;;;;24.00;22.00;;;;;;;;8684790;41;10093;-58
2021/05/06 07:06:00;;;;;;;;;27.67;24.67;;;;;;;;8690933;40;10132;-57
2021/05/06 07:12:02;;;;;;;;;24.33;21.67;;;;;;;;8699358;40;10155;-58
2021/05/06 07:18:04;;;;;;;;;25.33;20.67;;;;;;;;8700138;40;11103;-59
2021/05/06 07:24:07;;;;;;;;;29.67;26.33;;;;;;;;8700522;40;10108;-57
2021/05/06 07:30:10;;;;;;;;;32.33;27.00;;;;;;;;8701211;40;10044;-58
2021/05/06 07:36:15;;;;;;;;;49.00;41.33;;;;;;;;8701082;40;10674;-59
2021/05/06 07:42:20;;;;;;;;;20.33;18.33;;;;;;;;8696114;40;10357;-60
2021/05/06 07:48:25;;;;;;;;;20.00;18.67;;;;;;;;8678497;41;10376;-59
2021/05/06 07:54:29;;;;;;;;;22.67;20.67;;;;;;;;8675615;41;10423;-57
2021/05/06 08:00:35;;;;;;;;;20.00;18.67;;;;;;;;8676135;41;10363;-58
2021/05/06 08:06:36;;;;;;;;;23.33;21.00;;;;;;;;8690129;41;10660;-58
2021/05/06 08:12:38;;;;;;;;;23.33;19.00;;;;;;;;8690113;40;10609;-57
2021/05/06 08:18:39;;;;;;;;;19.00;17.67;;;;;;;;8676330;41;10641;-63
2021/05/06 08:24:42;;;;;;;;;15.50;15.50;;;;;;;;8674318;41;11047;-59
2021/05/06 08:30:43;;;;;;;;;16.75;13.50;;;;;;;;8677376;41;10942;-59
2021/05/06 08:36:45;;;;;;;;;25.50;21.50;;;;;;;;8676222;40;11161;-59
2021/05/06 08:42:50;;;;;;;;;20.50;16.75;;;;;;;;8684290;40;10912;-57
2021/05/06 08:48:51;;;;;;;;;15.75;14.75;;;;;;;;8688494;40;10908;-59
2021/05/06 08:54:55;;;;;;;;;9.20;7.60;;;;;;;;8197228;40;20002005;-59
2021/05/06 09:00:56;;;;;;;;;7.25;6.00;;;;;;;;8699011;40;11087;-59
2021/05/06 09:06:59;;;;;;;;;10.25;9.25;;;;;;;;8714127;40;10698;-58
2021/05/06 09:13:04;;;;;;;;;12.25;11.50;;;;;;;;8715191;40;10921;-62
2021/05/06 09:19:08;;;;;;;;;6.00;4.75;;;;;;;;8703073;40;11859;-60
2021/05/06 09:25:26;;;;;;;;;8.50;6.75;;;;;;;;8699330;40;10524;-59
2021/05/06 09:31:27;;;;;;;;;7.50;7.50;;;;;;;;8709498;40;10451;-60
2021/05/06 09:37:38;;;;;;;;;7.00;7.00;;;;;;;;8711455;40;10560;-61
2021/05/06 09:43:42;;;;;;;;;2.00;2.00;;;;;;;;8699800;40;10473;-60
2021/05/06 09:50:04;;;;;;;;;7.00;5.50;;;;;;;;8698394;40;11072;-59
2021/05/06 09:56:06;;;;;;;;;8.75;5.50;;;;;;;;8699149;40;10483;-59
2021/05/06 10:02:14;;;;;;;;;2.75;2.75;;;;;;;;8699253;41;10444;-60
2021/05/06 10:08:16;;;;;;;;;9.75;7.50;;;;;;;;8698915;40;10559;-60
2021/05/06 10:14:18;;;;;;;;;9.00;9.00;;;;;;;;8712276;40;10360;-57
2021/05/06 10:20:23;;;;;;;;;10.00;10.00;;;;;;;;8716975;40;10529;-58
2021/05/06 10:26:36;;;;;;;;;6.00;6.00;;;;;;;;8699508;40;10761;-59
2021/05/06 10:32:40;;;;;;;;;8.00;8.00;;;;;;;;8699677;40;11176;-61
2021/05/06 10:38:43;;;;;;;;;9.75;8.50;;;;;;;;8717411;40;10495;-63
2021/05/06 10:44:44;;;;;;;;;7.75;7.00;;;;;;;;8728322;40;10804;-60
2021/05/06 10:50:46;;;;;;;;;4.50;3.50;;;;;;;;8702659;40;10558;-59
2021/05/06 10:56:48;;;;;;;;;5.25;5.25;;;;;;;;8708231;40;10554;-58
2021/05/06 11:02:54;;;;;;;;;9.00;6.00;;;;;;;;8722017;40;12244;-58
2021/05/06 11:08:56;;;;;;;;;3.50;3.50;;;;;;;;8700787;40;10484;-58
2021/05/06 11:15:00;;;;;;;;;4.00;4.00;;;;;;;;8715062;40;10520;-59
2021/05/06 11:21:02;;;;;;;;;8.00;5.75;;;;;;;;8701741;40;10710;-56
2021/05/06 11:27:23;;;;;;;;;6.00;5.00;;;;;;;;8702481;41;10748;-59
2021/05/06 11:33:28;;;;;;;;;4.00;4.00;;;;;;;;8703342;40;10416;-58
2021/05/06 11:39:30;;;;;;;;;5.25;4.75;;;;;;;;8710844;40;10607;-58
2021/05/06 11:45:34;;;;;;;;;2.00;2.00;;;;;;;;8726234;40;10487;-58
2021/05/06 11:51:42;;;;;;;;;2.25;2.25;;;;;;;;8724514;40;10473;-59
2021/05/06 11:57:48;;;;;;;;;4.00;4.00;;;;;;;;8725702;40;10734;-60
2021/05/06 12:03:50;;;;;;;;;5.25;4.00;;;;;;;;8702389;41;10618;-59
2021/05/06 12:09:51;;;;;;;;;3.75;3.75;;;;;;;;8700845;41;10488;-60
2021/05/06 12:16:08;;;;;;;;;8.25;4.50;;;;;;;;8721107;40;10426;-59
2021/05/06 12:22:10;;;;;;;;;4.00;4.00;;;;;;;;8711286;40;10503;-57
2021/05/06 12:28:12;;;;;;;;;3.00;3.00;;;;;;;;8701119;40;10366;-59
2021/05/06 12:34:15;;;;;;;;;5.75;5.75;;;;;;;;8702046;40;10452;-60
2021/05/06 12:40:19;;;;;;;;;3.75;2.00;;;;;;;;8723901;40;10726;-59
2021/05/06 12:46:27;;;;;;;;;2.00;2.00;;;;;;;;8725097;40;10522;-58
2021/05/06 12:52:34;;;;;;;;;4.00;4.00;;;;;;;;8723574;40;10697;-58
2021/05/06 12:58:36;;;;;;;;;2.00;2.00;;;;;;;;8705109;40;10545;-59
2021/05/06 13:04:46;;;;;;;;;2.75;1.25;;;;;;;;8700274;40;10499;-56
2021/05/06 13:10:48;;;;;;;;;2.00;2.00;;;;;;;;8699940;40;10442;-58
2021/05/06 13:16:51;;;;;;;;;2.25;2.00;;;;;;;;8725032;40;10633;-57
2021/05/06 13:23:10;;;;;;;;;5.25;2.00;;;;;;;;8723579;40;10496;-58
2021/05/06 13:29:15;;;;;;;;;1.00;1.00;;;;;;;;8725266;40;10598;-58
2021/05/06 13:35:17;;;;;;;;;2.50;2.50;;;;;;;;8724166;40;10472;-58
2021/05/06 13:41:30;;;;;;;;;1.75;1.75;;;;;;;;8722162;40;10433;-57
2021/05/06 13:47:32;;;;;;;;;1.75;1.25;;;;;;;;8722927;40;11151;-57
2021/05/06 13:53:33;;;;;;;;;3.50;3.50;;;;;;;;8723545;40;10610;-58
2021/05/06 13:59:35;;;;;;;;;1.50;1.50;;;;;;;;8724593;40;10600;-57
2021/05/06 14:05:37;;;;;;;;;2.00;2.00;;;;;;;;8714791;40;10369;-58
2021/05/06 14:11:38;;;;;;;;;2.75;2.75;;;;;;;;8700723;40;10566;-58
2021/05/06 14:17:39;;;;;;;;;3.00;2.00;;;;;;;;8702817;40;11035;-57
2021/05/06 14:23:44;;;;;;;;;2.00;2.00;;;;;;;;8712280;40;10341;-58
2021/05/06 14:29:46;;;;;;;;;1.50;1.50;;;;;;;;8725744;40;10459;-58
2021/05/06 14:35:47;;;;;;;;;2.00;1.00;;;;;;;;8714132;40;10537;-60
2021/05/06 14:41:49;;;;;;;;;2.00;2.00;;;;;;;;8721035;40;10591;-58
2021/05/06 14:47:51;;;;;;;;;4.75;3.50;;;;;;;;8723797;40;10429;-58
2021/05/06 14:53:54;;;;;;;;;5.00;4.00;;;;;;;;8721967;40;10488;-59
2021/05/06 14:59:55;;;;;;;;;3.50;2.00;;;;;;;;8724526;40;10625;-58
2021/05/06 15:05:57;;;;;;;;;3.00;3.00;;;;;;;;8721349;40;10431;-60
2021/05/06 15:11:59;;;;;;;;;4.25;4.25;;;;;;;;8722192;40;10632;-57
2021/05/06 15:18:01;;;;;;;;;5.25;4.00;;;;;;;;8721750;40;10553;-60
2021/05/06 15:24:02;;;;;;;;;4.50;4.00;;;;;;;;8702125;41;10493;-58
2021/05/06 15:30:05;;;;;;;;;4.50;4.50;;;;;;;;8703192;40;10393;-58
2021/05/06 15:36:06;;;;;;;;;3.25;3.25;;;;;;;;8702570;40;12292;-59
2021/05/06 15:42:08;;;;;;;;;1.75;1.75;;;;;;;;8701509;40;10535;-59
2021/05/06 15:48:11;;;;;;;;;2.00;2.00;;;;;;;;8703645;41;10435;-60
2021/05/06 15:54:12;;;;;;;;;3.75;3.75;;;;;;;;8701199;40;10476;-59
2021/05/06 16:00:15;;;;;;;;;7.75;5.50;;;;;;;;8704088;40;10428;-59
2021/05/06 16:06:16;;;;;;;;;4.00;4.00;;;;;;;;8704761;40;11335;-59
2021/05/06 16:12:19;;;;;;;;;5.50;5.00;;;;;;;;8713303;40;10551;-58
2021/05/06 16:18:22;;;;;;;;;6.25;5.25;;;;;;;;8726119;40;10519;-58
2021/05/06 16:24:24;;;;;;;;;3.25;3.25;;;;;;;;8725996;40;10676;-57
2021/05/06 16:30:26;;;;;;;;;8.50;8.50;;;;;;;;8725881;40;10785;-57
2021/05/06 16:48:46;;;;;;;;;5.00;5.00;;;;;;;;8726535;40;10767;-59
2021/05/06 16:54:47;;;;;;;;;5.25;5.00;;;;;;;;8723031;40;10956;-57
2021/05/06 17:00:49;;;;;;;;;7.25;6.00;;;;;;;;8726960;40;11515;-58
2021/05/06 17:06:55;;;;;;;;;3.00;1.75;;;;;;;;8724630;40;10838;-58
2021/05/06 17:12:57;;;;;;;;;4.75;4.25;;;;;;;;8724655;40;10944;-58
2021/05/06 17:18:59;;;;;;;;;1.00;1.00;;;;;;;;8725450;40;10622;-57
2021/05/06 17:25:01;;;;;;;;;6.00;5.00;;;;;;;;8723620;40;10530;-57
2021/05/06 17:31:03;;;;;;;;;5.00;4.00;;;;;;;;8725411;40;10593;-58
2021/05/06 17:37:04;;;;;;;;;6.00;4.33;;;;;;;;8723692;40;9996;-60
2021/05/06 17:43:06;;;;;;;;;6.67;5.00;;;;;;;;8724344;40;10058;-58
2021/05/06 17:49:07;;;;;;;;;5.00;4.00;;;;;;;;8725469;40;10137;-58
2021/05/06 17:55:10;;;;;;;;;7.33;6.00;;;;;;;;8722504;40;10196;-59
2021/05/06 18:01:14;;;;;;;;;5.67;5.33;;;;;;;;8725289;40;9952;-57
2021/05/06 18:07:15;;;;;;;;;4.50;4.50;;;;;;;;8723034;40;10012;-57
2021/05/06 18:13:18;;;;;;;;;4.00;4.00;;;;;;;;8723564;40;10016;-57
2021/05/06 18:19:19;;;;;;;;;5.33;5.33;;;;;;;;8725455;40;10548;-59
2021/05/06 18:25:21;;;;;;;;;4.00;4.00;;;;;;;;8723301;40;10018;-58
2021/05/06 18:31:24;;;;;;;;;6.00;4.00;;;;;;;;8721254;40;9959;-57
2021/05/06 18:37:26;;;;;;;;;5.67;5.67;;;;;;;;8699149;40;10199;-60
2021/05/06 18:43:28;;;;;;;;;3.67;3.67;;;;;;;;8700141;40;10282;-57
2021/05/06 18:49:30;;;;;;;;;8.00;5.33;;;;;;;;8701581;40;10050;-57
2021/05/06 18:55:32;;;;;;;;;6.33;6.33;;;;;;;;8700849;40;10138;-57
2021/05/06 19:01:34;;;;;;;;;9.33;6.00;;;;;;;;8704887;41;10061;-56
2021/05/06 19:07:35;;;;;;;;;8.00;8.00;;;;;;;;8703663;40;10032;-57
2021/05/06 19:13:45;;;;;;;;;4.67;4.67;;;;;;;;8703373;40;10020;-57
2021/05/06 19:19:46;;;;;;;;;8.00;5.33;;;;;;;;8704010;40;10010;-58
2021/05/06 19:25:48;;;;;;;;;7.33;7.33;;;;;;;;8702002;40;10284;-58
2021/05/06 19:31:49;;;;;;;;;7.00;6.33;;;;;;;;8707562;40;9937;-57
2021/05/06 19:37:51;;;;;;;;;7.33;6.67;;;;;;;;8702522;41;11177;-58
2021/05/06 19:43:53;;;;;;;;;7.67;6.33;;;;;;;;8702971;41;10074;-57
2021/05/06 19:49:54;;;;;;;;;4.67;4.67;;;;;;;;8704159;40;10018;-56
2021/05/06 19:55:56;;;;;;;;;5.67;3.00;;;;;;;;8701791;41;10572;-57
2021/05/06 20:01:59;;;;;;;;;7.33;7.00;;;;;;;;8708204;40;9886;-56
2021/05/06 20:08:01;;;;;;;;;5.67;5.67;;;;;;;;8725087;40;9988;-58
2021/05/06 20:14:03;;;;;;;;;7.67;7.67;;;;;;;;8725626;40;10024;-56
2021/05/06 20:20:51;;;;;;;;;5.00;4.67;;;;;;;;8727029;40;10479;-58
2021/05/06 20:26:33;;;;;;;;;7.67;7.00;;;;;;;;8724214;40;10042;-57
2021/05/06 20:32:35;;;;;;;;;5.67;5.00;;;;;;;;8727206;40;10488;-56
2021/05/06 20:38:38;;;;;;;;;4.67;4.67;;;;;;;;8725946;40;10576;-57
2021/05/06 20:50:45;;;;;;;;;8.33;8.33;;;;;;;;8725832;40;9997;-58
2021/05/06 20:56:46;;;;;;;;;7.67;7.67;;;;;;;;8724872;40;10501;-58
2021/05/06 21:02:47;;;;;;;;;8.00;8.00;;;;;;;;8725617;40;10068;-57
2021/05/06 21:08:49;;;;;;;;;10.00;8.00;;;;;;;;8724509;40;10021;-58
2021/05/06 21:14:50;;;;;;;;;12.67;10.33;;;;;;;;8726791;40;10017;-57
2021/05/06 21:20:52;;;;;;;;;9.00;8.00;;;;;;;;8724817;40;10005;-59
2021/05/06 21:26:53;;;;;;;;;6.00;6.00;;;;;;;;8725135;40;10052;-57
2021/05/06 21:32:55;;;;;;;;;14.33;10.33;;;;;;;;8725525;40;9969;-58
2021/05/06 21:38:57;;;;;;;;;9.33;8.33;;;;;;;;8724101;40;10053;-56
2021/05/06 21:44:58;;;;;;;;;11.00;11.00;;;;;;;;8725537;40;10000;-57
2021/05/06 21:51:00;;;;;;;;;12.67;9.00;;;;;;;;8724877;40;10024;-57
2021/05/06 21:57:01;;;;;;;;;9.67;8.00;;;;;;;;8723510;40;10008;-56
2021/05/06 22:03:04;;;;;;;;;9.33;8.33;;;;;;;;8724932;40;10065;-57
2021/05/06 22:09:06;;;;;;;;;10.67;10.67;;;;;;;;8723501;40;10028;-57
2021/05/06 22:15:09;;;;;;;;;8.00;7.67;;;;;;;;8724808;40;10000;-57
2021/05/06 22:21:14;;;;;;;;;10.67;8.00;;;;;;;;8723908;40;10096;-57
2021/05/06 22:27:16;;;;;;;;;8.00;7.00;;;;;;;;8724349;40;9970;-57
2021/05/06 22:33:18;;;;;;;;;10.67;10.67;;;;;;;;8727865;40;10061;-57
2021/05/06 22:39:19;;;;;;;;;9.00;9.00;;;;;;;;8727737;40;10020;-57
2021/05/06 22:45:21;;;;;;;;;10.33;9.33;;;;;;;;8726608;40;10240;-57
2021/05/06 22:51:22;;;;;;;;;11.50;8.50;;;;;;;;8703660;40;10210;-56
2021/05/06 22:57:24;;;;;;;;;8.00;8.00;;;;;;;;8703883;40;10062;-56
2021/05/06 23:03:25;;;;;;;;;13.00;10.00;;;;;;;;8703740;40;10099;-58
2021/05/06 23:09:27;;;;;;;;;8.00;8.00;;;;;;;;8702536;40;10089;-57
2021/05/06 23:15:28;;;;;;;;;8.00;5.00;;;;;;;;8701346;40;10085;-57
2021/05/06 23:21:29;;;;;;;;;6.00;6.00;;;;;;;;8704555;40;10052;-58
2021/05/06 23:27:31;;;;;;;;;6.33;6.00;;;;;;;;8702287;41;10018;-57
2021/05/06 23:33:33;;;;;;;;;8.67;8.67;;;;;;;;8703446;40;10139;-56
2021/05/06 23:39:35;;;;;;;;;11.33;8.67;;;;;;;;8700652;40;9966;-56
2021/05/06 23:45:36;;;;;;;;;10.33;10.33;;;;;;;;8702374;40;9987;-57
2021/05/06 23:51:40;;;;;;;;;9.33;9.33;;;;;;;;8703057;40;10049;-56
2021/05/06 23:57:42;;;;;;;;;9.67;8.67;;;;;;;;8702229;40;10274;-57
